sensor_id;sensor_type;location;lat;lon;timestamp;pressure;altitude;pressure_sealevel;temperature;humidity
77281;BME280;66339;47.262;17.144;2024-01-27T00:02:02;101092.13;;;18.06;40.71
77281;BME280;66339;47.262;17.144;2024-01-27T00:04:29;101098.28;;;18.06;40.70
77281;BME280;66339;47.262;17.144;2024-01-27T00:06:55;101102.56;;;18.07;40.68
77281;BME280;66339;47.262;17.144;2024-01-27T00:09:25;101108.19;;;18.06;40.67
77281;BME280;66339;47.262;17.144;2024-01-27T00:11:55;101114.34;;;18.06;40.67
77281;BME280;66339;47.262;17.144;2024-01-27T00:14:21;101110.06;;;18.05;40.67
77281;BME280;66339;47.262;17.144;2024-01-27T00:16:48;101118.09;;;18.05;40.68
77281;BME280;66339;47.262;17.144;2024-01-27T00:19:14;101105.75;;;18.04;40.63
77281;BME280;66339;47.262;17.144;2024-01-27T00:21:41;101129.06;;;18.04;40.64
77281;BME280;66339;47.262;17.144;2024-01-27T00:24:08;101142.44;;;18.04;40.67
77281;BME280;66339;47.262;17.144;2024-01-27T00:26:34;101139.97;;;18.02;40.64
77281;BME280;66339;47.262;17.144;2024-01-27T00:29:01;101145.34;;;18.02;40.65
77281;BME280;66339;47.262;17.144;2024-01-27T00:31:27;101159.78;;;18.01;40.65
77281;BME280;66339;47.262;17.144;2024-01-27T00:33:54;101165.13;;;18.01;40.64
77281;BME280;66339;47.262;17.144;2024-01-27T00:36:23;101164.56;;;17.99;40.62
77281;BME280;66339;47.262;17.144;2024-01-27T00:38:50;101167.25;;;17.99;40.62
77281;BME280;66339;47.262;17.144;2024-01-27T00:41:19;101167.25;;;17.99;40.60
77281;BME280;66339;47.262;17.144;2024-01-27T00:43:46;101166.69;;;17.97;40.60
77281;BME280;66339;47.262;17.144;2024-01-27T00:46:12;101160.53;;;17.97;40.60
77281;BME280;66339;47.262;17.144;2024-01-27T00:48:42;101162.41;;;17.96;40.62
77281;BME280;66339;47.262;17.144;2024-01-27T00:51:12;101155.41;;;17.95;40.65
77281;BME280;66339;47.262;17.144;2024-01-27T00:53:40;101169.84;;;17.94;40.57
77281;BME280;66339;47.262;17.144;2024-01-27T00:56:12;101166.38;;;17.94;40.56
77281;BME280;66339;47.262;17.144;2024-01-27T00:58:38;101184.28;;;17.93;40.59
77281;BME280;66339;47.262;17.144;2024-01-27T01:01:05;101184.50;;;17.91;40.61
77281;BME280;66339;47.262;17.144;2024-01-27T01:03:37;101186.37;;;17.91;40.57
77281;BME280;66339;47.262;17.144;2024-01-27T01:06:04;101180.22;;;17.90;40.55
77281;BME280;66339;47.262;17.144;2024-01-27T01:08:31;101184.78;;;17.90;40.59
77281;BME280;66339;47.262;17.144;2024-01-27T01:11:02;101180.47;;;17.89;40.59
77281;BME280;66339;47.262;17.144;2024-01-27T01:13:29;101181.50;;;17.88;40.63
77281;BME280;66339;47.262;17.144;2024-01-27T01:15:58;101190.59;;;17.87;40.68
77281;BME280;66339;47.262;17.144;2024-01-27T01:18:24;101186.06;;;17.87;40.68
77281;BME280;66339;47.262;17.144;2024-01-27T01:20:54;101188.19;;;17.85;40.71
77281;BME280;66339;47.262;17.144;2024-01-27T01:23:21;101187.38;;;17.85;40.66
77281;BME280;66339;47.262;17.144;2024-01-27T01:25:47;101182.03;;;17.85;40.65
77281;BME280;66339;47.262;17.144;2024-01-27T01:28:16;101185.72;;;17.84;40.66
77281;BME280;66339;47.262;17.144;2024-01-27T01:30:43;101183.06;;;17.84;40.68
77281;BME280;66339;47.262;17.144;2024-01-27T01:33:15;101178.78;;;17.83;40.69
77281;BME280;66339;47.262;17.144;2024-01-27T01:35:47;101175.28;;;17.82;40.69
77281;BME280;66339;47.262;17.144;2024-01-27T01:38:14;101177.16;;;17.82;40.65
77281;BME280;66339;47.262;17.144;2024-01-27T01:40:44;101189.47;;;17.83;40.66
77281;BME280;66339;47.262;17.144;2024-01-27T01:43:10;101187.84;;;17.82;40.63
77281;BME280;66339;47.262;17.144;2024-01-27T01:45:37;101202.84;;;17.83;40.67
77281;BME280;66339;47.262;17.144;2024-01-27T01:48:04;101203.91;;;17.82;40.67
77281;BME280;66339;47.262;17.144;2024-01-27T01:50:31;101222.41;;;17.83;40.68
77281;BME280;66339;47.262;17.144;2024-01-27T01:52:57;101205.06;;;17.86;40.70
77281;BME280;66339;47.262;17.144;2024-01-27T01:55:24;101209.13;;;17.88;40.73
77281;BME280;66339;47.262;17.144;2024-01-27T01:57:51;101200.84;;;17.90;40.72
77281;BME280;66339;47.262;17.144;2024-01-27T02:00:17;101211.06;;;17.93;40.71
77281;BME280;66339;47.262;17.144;2024-01-27T02:02:44;101198.47;;;17.94;40.68
77281;BME280;66339;47.262;17.144;2024-01-27T02:05:13;101197.41;;;17.95;40.65
77281;BME280;66339;47.262;17.144;2024-01-27T02:07:40;101197.19;;;17.96;40.64
77281;BME280;66339;47.262;17.144;2024-01-27T02:10:14;101203.34;;;17.97;40.70
77281;BME280;66339;47.262;17.144;2024-01-27T02:12:44;101196.13;;;17.97;40.77
77281;BME280;66339;47.262;17.144;2024-01-27T02:15:13;101197.75;;;17.98;40.73
77281;BME280;66339;47.262;17.144;2024-01-27T02:17:43;101182.75;;;17.97;40.70
77281;BME280;66339;47.262;17.144;2024-01-27T02:20:13;101188.91;;;17.98;40.63
77281;BME280;66339;47.262;17.144;2024-01-27T02:22:39;101169.37;;;17.97;40.63
77281;BME280;66339;47.262;17.144;2024-01-27T02:25:11;101172.03;;;17.97;40.57
77281;BME280;66339;47.262;17.144;2024-01-27T02:27:37;101155.41;;;17.95;40.54
77281;BME280;66339;47.262;17.144;2024-01-27T02:30:04;101155.41;;;17.95;40.54
77281;BME280;66339;47.262;17.144;2024-01-27T02:32:35;101146.56;;;17.95;40.56
77281;BME280;66339;47.262;17.144;2024-01-27T02:35:06;101152.97;;;17.94;40.59
77281;BME280;66339;47.262;17.144;2024-01-27T02:37:36;101149.50;;;17.93;40.53
77281;BME280;66339;47.262;17.144;2024-01-27T02:40:02;101150.56;;;17.92;40.57
77281;BME280;66339;47.262;17.144;2024-01-27T02:42:31;101150.56;;;17.92;40.50
77281;BME280;66339;47.262;17.144;2024-01-27T02:44:58;101145.22;;;17.92;40.50
77281;BME280;66339;47.262;17.144;2024-01-27T02:47:27;101163.94;;;17.92;40.62
77281;BME280;66339;47.262;17.144;2024-01-27T02:49:56;101161.25;;;17.92;40.66
77281;BME280;66339;47.262;17.144;2024-01-27T02:52:23;101164.50;;;17.94;40.61
77281;BME280;66339;47.262;17.144;2024-01-27T02:54:53;101167.75;;;17.96;40.57
77281;BME280;66339;47.262;17.144;2024-01-27T02:57:22;101179.25;;;17.97;40.53
77281;BME280;66339;47.262;17.144;2024-01-27T02:59:53;101185.41;;;17.97;40.52
77281;BME280;66339;47.262;17.144;2024-01-27T03:02:23;101183.31;;;17.99;40.49
77281;BME280;66339;47.262;17.144;2024-01-27T03:04:49;101183.31;;;17.99;40.49
77281;BME280;66339;47.262;17.144;2024-01-27T03:07:16;101187.03;;;17.98;40.47
77281;BME280;66339;47.262;17.144;2024-01-27T03:09:42;101186.22;;;17.98;40.50
77281;BME280;66339;47.262;17.144;2024-01-27T03:12:09;101192.38;;;17.98;40.48
77281;BME280;66339;47.262;17.144;2024-01-27T03:14:38;101201.47;;;17.97;40.50
77281;BME280;66339;47.262;17.144;2024-01-27T03:17:16;101205.22;;;17.96;40.49
77281;BME280;66339;47.262;17.144;2024-01-27T03:19:43;101216.75;;;17.97;40.49
77281;BME280;66339;47.262;17.144;2024-01-27T03:22:15;101225.00;;;17.95;40.51
77281;BME280;66339;47.262;17.144;2024-01-27T03:24:45;101230.34;;;17.95;40.49
77281;BME280;66339;47.262;17.144;2024-01-27T03:27:11;101246.41;;;17.95;40.52
77281;BME280;66339;47.262;17.144;2024-01-27T03:29:39;101244.78;;;17.94;40.49
77281;BME280;66339;47.262;17.144;2024-01-27T03:32:11;101232.47;;;17.93;40.48
77281;BME280;66339;47.262;17.144;2024-01-27T03:34:43;101244.78;;;17.94;40.51
77281;BME280;66339;47.262;17.144;2024-01-27T03:37:09;101246.91;;;17.92;40.48
77281;BME280;66339;47.262;17.144;2024-01-27T03:39:40;101245.25;;;17.91;40.52
77281;BME280;66339;47.262;17.144;2024-01-27T03:42:07;101249.00;;;17.90;40.52
77281;BME280;66339;47.262;17.144;2024-01-27T03:44:34;101247.37;;;17.89;40.56
77281;BME280;66339;47.262;17.144;2024-01-27T03:47:03;101257.50;;;17.87;40.62
77281;BME280;66339;47.262;17.144;2024-01-27T03:49:34;101254.84;;;17.87;40.61
77281;BME280;66339;47.262;17.144;2024-01-27T03:52:00;101260.19;;;17.87;40.48
77281;BME280;66339;47.262;17.144;2024-01-27T03:54:27;101278.91;;;17.87;40.45
77281;BME280;66339;47.262;17.144;2024-01-27T03:56:56;101270.41;;;17.90;40.49
77281;BME280;66339;47.262;17.144;2024-01-27T03:59:25;101273.91;;;17.90;40.52
77281;BME280;66339;47.262;17.144;2024-01-27T04:01:58;101268.31;;;17.92;40.53
77281;BME280;66339;47.262;17.144;2024-01-27T04:04:25;101282.25;;;17.94;40.50
77281;BME280;66339;47.262;17.144;2024-01-27T04:06:51;101274.81;;;17.96;40.47
77281;BME280;66339;47.262;17.144;2024-01-27T04:09:18;101287.13;;;17.97;40.49
77281;BME280;66339;47.262;17.144;2024-01-27T04:11:45;101287.94;;;17.98;40.50
77281;BME280;66339;47.262;17.144;2024-01-27T04:14:11;101290.38;;;17.99;40.55
77281;BME280;66339;47.262;17.144;2024-01-27T04:16:41;101293.06;;;17.99;40.63
77281;BME280;66339;47.262;17.144;2024-01-27T04:19:07;101298.41;;;17.99;40.63
77281;BME280;66339;47.262;17.144;2024-01-27T04:21:40;101311.78;;;17.99;40.61
77281;BME280;66339;47.262;17.144;2024-01-27T04:24:06;101317.12;;;17.99;40.55
77281;BME280;66339;47.262;17.144;2024-01-27T04:26:36;101315.53;;;17.98;40.54
77281;BME280;66339;47.262;17.144;2024-01-27T04:29:03;101319.00;;;17.99;40.53
77281;BME280;66339;47.262;17.144;2024-01-27T04:31:32;101313.91;;;17.97;40.53
77281;BME280;66339;47.262;17.144;2024-01-27T04:33:59;101331.03;;;17.96;40.53
77281;BME280;66339;47.262;17.144;2024-01-27T04:36:28;101321.34;;;17.95;40.54
77281;BME280;66339;47.262;17.144;2024-01-27T04:38:55;101326.69;;;17.95;40.56
77281;BME280;66339;47.262;17.144;2024-01-27T04:41:22;101337.66;;;17.94;40.65
77281;BME280;66339;47.262;17.144;2024-01-27T04:43:51;101344.88;;;17.93;40.63
77281;BME280;66339;47.262;17.144;2024-01-27T04:46:18;101356.66;;;17.92;40.66
77281;BME280;66339;47.262;17.144;2024-01-27T04:48:47;101346.97;;;17.91;40.62
77281;BME280;66339;47.262;17.144;2024-01-27T04:51:16;101356.06;;;17.90;40.61
77281;BME280;66339;47.262;17.144;2024-01-27T04:53:43;101376.66;;;17.89;40.61
77281;BME280;66339;47.262;17.144;2024-01-27T04:56:09;101375.84;;;17.89;40.52
77281;BME280;66339;47.262;17.144;2024-01-27T04:58:36;101381.69;;;17.86;40.63
77281;BME280;66339;47.262;17.144;2024-01-27T05:01:05;101369.37;;;17.85;40.59
77281;BME280;66339;47.262;17.144;2024-01-27T05:03:38;101394.47;;;17.84;40.56
77281;BME280;66339;47.262;17.144;2024-01-27T05:06:07;101395.53;;;17.83;40.55
77281;BME280;66339;47.262;17.144;2024-01-27T05:08:34;101392.84;;;17.83;40.57
77281;BME280;66339;47.262;17.144;2024-01-27T05:11:00;101411.84;;;17.81;40.53
77281;BME280;66339;47.262;17.144;2024-01-27T05:13:27;101414.75;;;17.80;40.57
77281;BME280;66339;47.262;17.144;2024-01-27T05:15:54;101430.78;;;17.80;40.51
77281;BME280;66339;47.262;17.144;2024-01-27T05:18:23;101439.88;;;17.79;40.54
77281;BME280;66339;47.262;17.144;2024-01-27T05:20:52;101437.44;;;17.77;40.55
77281;BME280;66339;47.262;17.144;2024-01-27T05:23:19;101447.34;;;17.77;40.56
77281;BME280;66339;47.262;17.144;2024-01-27T05:25:45;101461.75;;;17.76;40.52
77281;BME280;66339;47.262;17.144;2024-01-27T05:28:12;101456.41;;;17.76;40.57
77281;BME280;66339;47.262;17.144;2024-01-27T05:30:38;101456.41;;;17.76;40.42
77281;BME280;66339;47.262;17.144;2024-01-27T05:33:07;101457.22;;;17.76;40.51
77281;BME280;66339;47.262;17.144;2024-01-27T05:35:37;101466.63;;;17.79;40.43
77281;BME280;66339;47.262;17.144;2024-01-27T05:38:04;101473.63;;;17.80;40.43
77281;BME280;66339;47.262;17.144;2024-01-27T05:40:33;101462.91;;;17.80;40.41
77281;BME280;66339;47.262;17.144;2024-01-27T05:43:02;101460.81;;;17.82;40.38
77281;BME280;66339;47.262;17.144;2024-01-27T05:45:28;101456.53;;;17.81;40.35
77281;BME280;66339;47.262;17.144;2024-01-27T05:47:58;101450.13;;;17.82;40.35
77281;BME280;66339;47.262;17.144;2024-01-27T05:50:25;101454.41;;;17.83;40.38
77281;BME280;66339;47.262;17.144;2024-01-27T05:52:52;101453.34;;;17.84;40.47
77281;BME280;66339;47.262;17.144;2024-01-27T05:55:24;101463.25;;;17.83;40.49
77281;BME280;66339;47.262;17.144;2024-01-27T05:57:50;101458.72;;;17.84;40.47
77281;BME280;66339;47.262;17.144;2024-01-27T06:00:26;101461.38;;;17.84;40.45
77281;BME280;66339;47.262;17.144;2024-01-27T06:02:52;101455.22;;;17.83;40.40
77281;BME280;66339;47.262;17.144;2024-01-27T06:05:19;101455.22;;;17.83;40.39
77281;BME280;66339;47.262;17.144;2024-01-27T06:07:49;101461.38;;;17.84;40.39
77281;BME280;66339;47.262;17.144;2024-01-27T06:10:15;101464.06;;;17.84;40.43
77281;BME280;66339;47.262;17.144;2024-01-27T06:12:45;101464.06;;;17.84;40.43
77281;BME280;66339;47.262;17.144;2024-01-27T06:15:11;101462.44;;;17.83;40.38
77281;BME280;66339;47.262;17.144;2024-01-27T06:17:38;101460.56;;;17.83;40.36
77281;BME280;66339;47.262;17.144;2024-01-27T06:20:07;101463.25;;;17.83;40.35
77281;BME280;66339;47.262;17.144;2024-01-27T06:22:37;101466.97;;;17.82;40.36
77281;BME280;66339;47.262;17.144;2024-01-27T06:25:04;101459.22;;;17.81;40.39
77281;BME280;66339;47.262;17.144;2024-01-27T06:27:31;101466.19;;;17.82;40.39
77281;BME280;66339;47.262;17.144;2024-01-27T06:29:58;101469.91;;;17.81;40.37
77281;BME280;66339;47.262;17.144;2024-01-27T06:32:28;101483.28;;;17.81;40.36
77281;BME280;66339;47.262;17.144;2024-01-27T06:34:54;101480.63;;;17.81;40.33
77281;BME280;66339;47.262;17.144;2024-01-27T06:37:21;101482.47;;;17.80;40.30
77281;BME280;66339;47.262;17.144;2024-01-27T06:39:48;101488.84;;;17.79;40.28
77281;BME280;66339;47.262;17.144;2024-01-27T06:42:18;101504.09;;;17.79;40.36
77281;BME280;66339;47.262;17.144;2024-01-27T06:44:44;101499.56;;;17.79;40.33
77281;BME280;66339;47.262;17.144;2024-01-27T06:47:16;101490.50;;;17.80;40.32
77281;BME280;66339;47.262;17.144;2024-01-27T06:49:46;101502.03;;;17.81;40.53
77281;BME280;66339;47.262;17.144;2024-01-27T06:52:15;101503.41;;;17.83;40.55
77281;BME280;66339;47.262;17.144;2024-01-27T06:54:42;101496.19;;;17.84;40.47
77281;BME280;66339;47.262;17.144;2024-01-27T06:57:17;101504.00;;;17.85;40.41
77281;BME280;66339;47.262;17.144;2024-01-27T06:59:43;101510.72;;;17.88;40.36
77281;BME280;66339;47.262;17.144;2024-01-27T07:02:10;101502.69;;;17.88;40.34
77281;BME280;66339;47.262;17.144;2024-01-27T07:04:36;101517.72;;;17.89;40.35
77281;BME280;66339;47.262;17.144;2024-01-27T07:07:06;101515.03;;;17.89;40.39
77281;BME280;66339;47.262;17.144;2024-01-27T07:09:32;101518.53;;;17.89;40.39
77281;BME280;66339;47.262;17.144;2024-01-27T07:12:02;101516.06;;;17.88;40.42
77281;BME280;66339;47.262;17.144;2024-01-27T07:14:29;101529.44;;;17.88;40.44
77281;BME280;66339;47.262;17.144;2024-01-27T07:16:59;101525.41;;;17.85;40.43
77281;BME280;66339;47.262;17.144;2024-01-27T07:19:28;101510.16;;;17.86;40.39
77281;BME280;66339;47.262;17.144;2024-01-27T07:22:01;101529.94;;;17.85;40.35
77281;BME280;66339;47.262;17.144;2024-01-27T07:24:27;101515.97;;;17.83;40.34
77281;BME280;66339;47.262;17.144;2024-01-27T07:26:57;101532.84;;;17.83;40.43
77281;BME280;66339;47.262;17.144;2024-01-27T07:29:23;101521.31;;;17.83;40.41
77281;BME280;66339;47.262;17.144;2024-01-27T07:31:50;101525.06;;;17.82;40.39
77281;BME280;66339;47.262;17.144;2024-01-27T07:34:17;101518.09;;;17.81;40.46
77281;BME280;66339;47.262;17.144;2024-01-27T07:36:44;101532.50;;;17.80;40.49
77281;BME280;66339;47.262;17.144;2024-01-27T07:39:10;101525.53;;;17.79;40.46
77281;BME280;66339;47.262;17.144;2024-01-27T07:41:37;101522.03;;;17.78;40.50
77281;BME280;66339;47.262;17.144;2024-01-27T07:44:10;101526.56;;;17.78;40.32
77281;BME280;66339;47.262;17.144;2024-01-27T07:46:40;101536.22;;;17.79;40.25
77281;BME280;66339;47.262;17.144;2024-01-27T07:49:07;101531.69;;;17.79;40.41
77281;BME280;66339;47.262;17.144;2024-01-27T07:51:37;101550.19;;;17.81;40.37
77281;BME280;66339;47.262;17.144;2024-01-27T07:54:04;101557.16;;;17.82;40.41
77281;BME280;66339;47.262;17.144;2024-01-27T07:56:31;101553.22;;;17.84;40.33
77281;BME280;66339;47.262;17.144;2024-01-27T07:58:57;101561.25;;;17.84;40.28
77281;BME280;66339;47.262;17.144;2024-01-27T08:01:24;101563.69;;;17.86;40.24
77281;BME280;66339;47.262;17.144;2024-01-27T08:03:50;101570.44;;;17.88;40.21
77281;BME280;66339;47.262;17.144;2024-01-27T08:07:02;101565.91;;;17.89;40.21
77281;BME280;66339;47.262;17.144;2024-01-27T08:09:07;101563.22;;;17.89;40.22
77281;BME280;66339;47.262;17.144;2024-01-27T08:11:33;101569.37;;;17.89;40.30
77281;BME280;66339;47.262;17.144;2024-01-27T08:14:00;101584.62;;;17.89;40.31
77281;BME280;66339;47.262;17.144;2024-01-27T08:16:30;101580.09;;;17.89;40.39
77281;BME280;66339;47.262;17.144;2024-01-27T08:18:59;101580.91;;;17.90;40.37
77281;BME280;66339;47.262;17.144;2024-01-27T08:21:26;101580.09;;;17.89;40.43
77281;BME280;66339;47.262;17.144;2024-01-27T08:23:53;101585.44;;;17.89;40.39
77281;BME280;66339;47.262;17.144;2024-01-27T08:26:19;101578.22;;;17.90;40.42
77281;BME280;66339;47.262;17.144;2024-01-27T08:28:46;101577.62;;;17.88;40.39
77281;BME280;66339;47.262;17.144;2024-01-27T08:31:15;101573.94;;;17.89;40.40
77281;BME280;66339;47.262;17.144;2024-01-27T08:33:42;101582.97;;;17.88;40.39
77281;BME280;66339;47.262;17.144;2024-01-27T08:36:12;101563.22;;;17.89;40.43
77281;BME280;66339;47.262;17.144;2024-01-27T08:38:41;101582.75;;;17.89;40.52
77281;BME280;66339;47.262;17.144;2024-01-27T08:41:08;101591.59;;;17.90;40.44
77281;BME280;66339;47.262;17.144;2024-01-27T08:43:34;101593.22;;;17.91;40.44
77281;BME280;66339;47.262;17.144;2024-01-27T08:46:01;101600.22;;;17.92;40.49
77281;BME280;66339;47.262;17.144;2024-01-27T08:48:31;101607.22;;;17.93;40.38
77281;BME280;66339;47.262;17.144;2024-01-27T08:50:58;101621.16;;;17.95;40.28
77281;BME280;66339;47.262;17.144;2024-01-27T08:53:28;101612.09;;;17.96;40.23
77281;BME280;66339;47.262;17.144;2024-01-27T08:56:01;101613.72;;;17.97;40.16
77281;BME280;66339;47.262;17.144;2024-01-27T08:58:27;101617.78;;;18.00;40.15
77281;BME280;66339;47.262;17.144;2024-01-27T09:00:56;101606.03;;;18.01;40.18
77281;BME280;66339;47.262;17.144;2024-01-27T09:03:23;101609.06;;;18.04;40.19
77281;BME280;66339;47.262;17.144;2024-01-27T09:05:50;101618.72;;;18.05;40.15
77281;BME280;66339;47.262;17.144;2024-01-27T09:08:20;101628.97;;;18.08;40.08
77281;BME280;66339;47.262;17.144;2024-01-27T09:10:49;101627.91;;;18.09;40.10
77281;BME280;66339;47.262;17.144;2024-01-27T09:13:17;101633.25;;;18.09;40.14
77281;BME280;66339;47.262;17.144;2024-01-27T09:15:43;101647.22;;;18.11;40.21
77281;BME280;66339;47.262;17.144;2024-01-27T09:18:13;101641.84;;;18.11;40.26
77281;BME280;66339;47.262;17.144;2024-01-27T09:20:39;101640.84;;;18.12;40.31
77281;BME280;66339;47.262;17.144;2024-01-27T09:23:09;101650.50;;;18.13;40.29
77281;BME280;66339;47.262;17.144;2024-01-27T09:25:35;101643.50;;;18.12;40.31
77281;BME280;66339;47.262;17.144;2024-01-27T09:28:05;101648.62;;;18.14;40.27
77281;BME280;66339;47.262;17.144;2024-01-27T09:30:32;101648.38;;;18.15;40.22
77281;BME280;66339;47.262;17.144;2024-01-27T09:33:01;101669.00;;;18.15;40.23
77281;BME280;66339;47.262;17.144;2024-01-27T09:35:28;101648.16;;;18.17;40.18
77281;BME280;66339;47.262;17.144;2024-01-27T09:37:58;101681.09;;;18.18;40.15
77281;BME280;66339;47.262;17.144;2024-01-27T09:40:24;101683.53;;;18.19;40.14
77281;BME280;66339;47.262;17.144;2024-01-27T09:42:51;101676.34;;;18.20;40.09
77281;BME280;66339;47.262;17.144;2024-01-27T09:45:21;101674.22;;;18.22;40.04
77281;BME280;66339;47.262;17.144;2024-01-27T09:47:48;101676.66;;;18.23;40.00
77281;BME280;66339;47.262;17.144;2024-01-27T09:50:15;101666.78;;;18.24;39.98
77281;BME280;66339;47.262;17.144;2024-01-27T09:52:46;101681.81;;;18.25;39.93
77281;BME280;66339;47.262;17.144;2024-01-27T09:55:13;101676.19;;;18.26;39.90
77281;BME280;66339;47.262;17.144;2024-01-27T09:57:40;101680.75;;;18.26;39.85
77281;BME280;66339;47.262;17.144;2024-01-27T10:00:12;101685.66;;;18.29;39.78
77281;BME280;66339;47.262;17.144;2024-01-27T10:02:41;101684.84;;;18.28;39.76
77281;BME280;66339;47.262;17.144;2024-01-27T10:05:11;101681.91;;;18.30;39.74
77281;BME280;66339;47.262;17.144;2024-01-27T10:07:37;101694.25;;;18.31;39.73
77281;BME280;66339;47.262;17.144;2024-01-27T10:10:07;101672.81;;;18.31;39.70
77281;BME280;66339;47.262;17.144;2024-01-27T10:12:40;101685.19;;;18.32;39.65
77281;BME280;66339;47.262;17.144;2024-01-27T10:15:31;101674.22;;;18.33;39.59
77281;BME280;66339;47.262;17.144;2024-01-27T10:18:04;101678.53;;;18.34;39.53
77281;BME280;66339;47.262;17.144;2024-01-27T10:20:30;101675.62;;;18.36;39.49
77281;BME280;66339;47.262;17.144;2024-01-27T10:22:57;101664.91;;;18.36;39.46
77281;BME280;66339;47.262;17.144;2024-01-27T10:25:23;101655.81;;;18.37;39.43
77281;BME280;66339;47.262;17.144;2024-01-27T10:27:56;101649.41;;;18.38;39.37
77281;BME280;66339;47.262;17.144;2024-01-27T10:30:22;101643.00;;;18.39;39.37
77281;BME280;66339;47.262;17.144;2024-01-27T10:32:58;101640.31;;;18.39;39.37
77281;BME280;66339;47.262;17.144;2024-01-27T10:35:25;101644.63;;;18.40;39.35
77281;BME280;66339;47.262;17.144;2024-01-27T10:37:55;101617.84;;;18.40;39.36
77281;BME280;66339;47.262;17.144;2024-01-27T10:40:36;101617.84;;;18.40;39.39
77281;BME280;66339;47.262;17.144;2024-01-27T10:43:05;101610.38;;;18.42;39.40
77281;BME280;66339;47.262;17.144;2024-01-27T10:45:36;101612.84;;;18.44;39.42
77281;BME280;66339;47.262;17.144;2024-01-27T10:48:03;101620.63;;;18.45;39.40
77281;BME280;66339;47.262;17.144;2024-01-27T10:50:33;101609.91;;;18.45;39.41
77281;BME280;66339;47.262;17.144;2024-01-27T10:53:00;101598.72;;;18.48;39.37
77281;BME280;66339;47.262;17.144;2024-01-27T10:55:30;101616.41;;;18.49;39.38
77281;BME280;66339;47.262;17.144;2024-01-27T10:57:57;101618.84;;;18.51;39.39
77281;BME280;66339;47.262;17.144;2024-01-27T11:00:25;101614.88;;;18.53;39.40
77281;BME280;66339;47.262;17.144;2024-01-27T11:02:55;101629.09;;;18.54;39.37
77281;BME280;66339;47.262;17.144;2024-01-27T11:05:22;101622.69;;;18.55;39.38
77281;BME280;66339;47.262;17.144;2024-01-27T11:07:50;101610.13;;;18.55;39.38
77281;BME280;66339;47.262;17.144;2024-01-27T11:10:17;101627.00;;;18.56;39.37
77281;BME280;66339;47.262;17.144;2024-01-27T11:12:43;101609.87;;;18.57;39.33
77281;BME280;66339;47.262;17.144;2024-01-27T11:15:13;101606.37;;;18.56;39.39
77281;BME280;66339;47.262;17.144;2024-01-27T11:17:40;101631.06;;;18.58;39.38
77281;BME280;66339;47.262;17.144;2024-01-27T11:20:09;101604.50;;;18.57;39.39
77281;BME280;66339;47.262;17.144;2024-01-27T11:22:36;101625.12;;;18.56;39.39
77281;BME280;66339;47.262;17.144;2024-01-27T11:25:14;101613.34;;;18.57;39.34
77281;BME280;66339;47.262;17.144;2024-01-27T11:27:43;101624.06;;;18.57;39.36
77281;BME280;66339;47.262;17.144;2024-01-27T11:30:27;101622.47;;;18.56;39.34
77281;BME280;66339;47.262;17.144;2024-01-27T11:32:56;101622.47;;;18.56;39.38
77281;BME280;66339;47.262;17.144;2024-01-27T11:35:27;101626.19;;;18.55;39.34
77281;BME280;66339;47.262;17.144;2024-01-27T11:37:57;101633.19;;;18.56;39.36
77281;BME280;66339;47.262;17.144;2024-01-27T11:40:23;101633.19;;;18.56;39.31
77281;BME280;66339;47.262;17.144;2024-01-27T11:42:56;101633.19;;;18.56;39.32
77281;BME280;66339;47.262;17.144;2024-01-27T11:45:26;101626.19;;;18.55;39.28
77281;BME280;66339;47.262;17.144;2024-01-27T11:47:55;101630.72;;;18.55;39.28
77281;BME280;66339;47.262;17.144;2024-01-27T11:50:22;101640.63;;;18.54;39.31
77281;BME280;66339;47.262;17.144;2024-01-27T11:52:49;101631.56;;;18.55;39.30
77281;BME280;66339;47.262;17.144;2024-01-27T11:55:16;101642.28;;;18.55;39.32
77281;BME280;66339;47.262;17.144;2024-01-27T11:57:42;101635.25;;;18.54;39.27
77281;BME280;66339;47.262;17.144;2024-01-27T12:00:09;101635.25;;;18.54;39.25
77281;BME280;66339;47.262;17.144;2024-01-27T12:02:38;101619.19;;;18.54;39.23
77281;BME280;66339;47.262;17.144;2024-01-27T12:05:05;101626.41;;;18.54;39.25
77281;BME280;66339;47.262;17.144;2024-01-27T12:07:32;101635.25;;;18.54;39.22
77281;BME280;66339;47.262;17.144;2024-01-27T12:10:02;101630.97;;;18.53;39.23
77281;BME280;66339;47.262;17.144;2024-01-27T12:12:34;101627.47;;;18.53;39.22
77281;BME280;66339;47.262;17.144;2024-01-27T12:15:01;101635.50;;;18.53;39.23
77281;BME280;66339;47.262;17.144;2024-01-27T12:17:31;101642.75;;;18.52;39.23
77281;BME280;66339;47.262;17.144;2024-01-27T12:20:06;101637.37;;;18.52;39.22
77281;BME280;66339;47.262;17.144;2024-01-27T12:22:41;101643.81;;;18.51;39.20
77281;BME280;66339;47.262;17.144;2024-01-27T12:25:08;101641.13;;;18.51;39.21
77281;BME280;66339;47.262;17.144;2024-01-27T12:27:35;101643.22;;;18.49;39.18
77281;BME280;66339;47.262;17.144;2024-01-27T12:30:02;101646.47;;;18.51;39.17
77281;BME280;66339;47.262;17.144;2024-01-27T12:32:29;101656.34;;;18.51;39.15
77281;BME280;66339;47.262;17.144;2024-01-27T12:34:57;101654.53;;;18.51;39.14
77281;BME280;66339;47.262;17.144;2024-01-27T12:37:26;101644.84;;;18.50;39.13
77281;BME280;66339;47.262;17.144;2024-01-27T12:39:53;101654.72;;;18.50;39.15
77281;BME280;66339;47.262;17.144;2024-01-27T12:42:26;101651.25;;;18.49;39.15
77281;BME280;66339;47.262;17.144;2024-01-27T12:44:55;101652.31;;;18.48;39.15
77281;BME280;66339;47.262;17.144;2024-01-27T12:47:22;101648.56;;;18.49;39.15